sensor_id;sensor_type;location;lat;lon;timestamp;pressure;altitude;pressure_sealevel;temperature;humidity
57442;BME280;43284;47.042;15.498;2023-04-26T00:01:52;96783.50;;;4.89;79.04
57442;BME280;43284;47.042;15.498;2023-04-26T00:04:18;96780.94;;;4.89;79.20
57442;BME280;43284;47.042;15.498;2023-04-26T00:06:43;96788.00;;;4.84;80.01
57442;BME280;43284;47.042;15.498;2023-04-26T00:09:10;96788.97;;;4.81;79.89
57442;BME280;43284;47.042;15.498;2023-04-26T00:11:35;96781.25;;;4.78;79.68
57442;BME280;43284;47.042;15.498;2023-04-26T00:14:01;96782.44;;;4.68;79.63
57442;BME280;43284;47.042;15.498;2023-04-26T00:16:26;96785.75;;;4.73;79.92
57442;BME280;43284;47.042;15.498;2023-04-26T00:18:52;96782.97;;;4.79;80.30
57442;BME280;43284;47.042;15.498;2023-04-26T00:21:18;96784.81;;;4.75;80.46
57442;BME280;43284;47.042;15.498;2023-04-26T00:23:43;96789.19;;;4.73;80.36
57442;BME280;43284;47.042;15.498;2023-04-26T00:26:09;96790.91;;;4.74;80.69
57442;BME280;43284;47.042;15.498;2023-04-26T00:28:35;96788.31;;;4.74;81.12
57442;BME280;43284;47.042;15.498;2023-04-26T00:31:00;96786.59;;;4.73;81.43
57442;BME280;43284;47.042;15.498;2023-04-26T00:33:27;96790.09;;;4.72;81.99
57442;BME280;43284;47.042;15.498;2023-04-26T00:35:52;96784.81;;;4.75;81.67
57442;BME280;43284;47.042;15.498;2023-04-26T00:38:18;96789.06;;;4.77;82.29
57442;BME280;43284;47.042;15.498;2023-04-26T00:40:43;96795.13;;;4.77;81.90
57442;BME280;43284;47.042;15.498;2023-04-26T00:43:09;96787.44;;;4.74;81.92
57442;BME280;43284;47.042;15.498;2023-04-26T00:45:35;96786.63;;;4.72;81.63
57442;BME280;43284;47.042;15.498;2023-04-26T00:48:02;96786.75;;;4.69;81.75
57442;BME280;43284;47.042;15.498;2023-04-26T00:50:28;96786.78;;;4.67;81.34
57442;BME280;43284;47.042;15.498;2023-04-26T00:52:58;96785.94;;;4.67;80.91
57442;BME280;43284;47.042;15.498;2023-04-26T00:55:25;96788.03;;;4.56;81.23
57442;BME280;43284;47.042;15.498;2023-04-26T00:57:52;96772.78;;;4.46;80.72
57442;BME280;43284;47.042;15.498;2023-04-26T01:00:18;96772.97;;;4.40;81.69
57442;BME280;43284;47.042;15.498;2023-04-26T01:02:44;96769.72;;;4.33;81.59
57442;BME280;43284;47.042;15.498;2023-04-26T01:05:09;96779.28;;;4.30;81.44
57442;BME280;43284;47.042;15.498;2023-04-26T01:07:36;96783.91;;;4.20;82.33
57442;BME280;43284;47.042;15.498;2023-04-26T01:10:04;96783.09;;;4.18;82.48
57442;BME280;43284;47.042;15.498;2023-04-26T01:12:31;96786.63;;;4.16;82.39
57442;BME280;43284;47.042;15.498;2023-04-26T01:14:59;96787.53;;;4.13;82.44
57442;BME280;43284;47.042;15.498;2023-04-26T01:17:25;96789.31;;;4.11;82.71
57442;BME280;43284;47.042;15.498;2023-04-26T01:19:51;96794.44;;;4.14;82.96
57442;BME280;43284;47.042;15.498;2023-04-26T01:22:17;96797.16;;;4.09;83.22
57442;BME280;43284;47.042;15.498;2023-04-26T01:24:45;96797.19;;;4.08;83.43
57442;BME280;43284;47.042;15.498;2023-04-26T01:27:12;96801.53;;;4.07;83.49
57442;BME280;43284;47.042;15.498;2023-04-26T01:29:38;96798.28;;;3.99;83.60
57442;BME280;43284;47.042;15.498;2023-04-26T01:32:04;96798.41;;;3.96;84.27
57442;BME280;43284;47.042;15.498;2023-04-26T01:34:30;96803.63;;;3.93;85.57
57442;BME280;43284;47.042;15.498;2023-04-26T01:36:57;96807.97;;;3.92;86.32
57442;BME280;43284;47.042;15.498;2023-04-26T01:39:22;96799.38;;;3.92;86.04
57442;BME280;43284;47.042;15.498;2023-04-26T01:41:48;96800.25;;;3.91;85.90
57442;BME280;43284;47.042;15.498;2023-04-26T01:44:13;96800.25;;;3.91;86.08
57442;BME280;43284;47.042;15.498;2023-04-26T01:46:39;96802.25;;;3.81;85.76
57442;BME280;43284;47.042;15.498;2023-04-26T01:49:05;96818.56;;;3.83;87.23
57442;BME280;43284;47.042;15.498;2023-04-26T01:51:31;96819.50;;;3.81;87.09
57442;BME280;43284;47.042;15.498;2023-04-26T01:53:57;96822.97;;;3.80;86.38
57442;BME280;43284;47.042;15.498;2023-04-26T01:56:23;96822.16;;;3.78;86.24
57442;BME280;43284;47.042;15.498;2023-04-26T01:58:49;96822.97;;;3.80;86.88
57442;BME280;43284;47.042;15.498;2023-04-26T02:01:14;96830.59;;;3.84;88.70
57442;BME280;43284;47.042;15.498;2023-04-26T02:03:40;96827.47;;;3.71;86.32
57442;BME280;43284;47.042;15.498;2023-04-26T02:06:05;96828.38;;;3.70;86.06
57442;BME280;43284;47.042;15.498;2023-04-26T02:08:31;96834.69;;;3.60;86.07
57442;BME280;43284;47.042;15.498;2023-04-26T02:10:57;96829.59;;;3.57;87.93
57442;BME280;43284;47.042;15.498;2023-04-26T02:13:23;96836.78;;;3.46;86.09
57442;BME280;43284;47.042;15.498;2023-04-26T02:15:49;96830.84;;;3.42;87.55
57442;BME280;43284;47.042;15.498;2023-04-26T02:18:15;96834.25;;;3.43;88.56
57442;BME280;43284;47.042;15.498;2023-04-26T02:20:42;96843.59;;;3.48;90.76
57442;BME280;43284;47.042;15.498;2023-04-26T02:23:09;96842.78;;;3.48;90.31
57442;BME280;43284;47.042;15.498;2023-04-26T02:25:35;96837.41;;;3.54;91.87
57442;BME280;43284;47.042;15.498;2023-04-26T02:28:02;96843.59;;;3.50;90.34
57442;BME280;43284;47.042;15.498;2023-04-26T02:30:27;96841.84;;;3.50;90.64
57442;BME280;43284;47.042;15.498;2023-04-26T02:32:53;96834.91;;;3.17;88.02
57442;BME280;43284;47.042;15.498;2023-04-26T02:35:19;96835.56;;;3.26;90.76
57442;BME280;43284;47.042;15.498;2023-04-26T02:37:45;96827.81;;;3.26;90.55
57442;BME280;43284;47.042;15.498;2023-04-26T02:40:14;96828.69;;;3.25;90.28
57442;BME280;43284;47.042;15.498;2023-04-26T02:42:39;96826.09;;;3.25;89.56
57442;BME280;43284;47.042;15.498;2023-04-26T02:45:06;96823.06;;;3.08;87.47
57442;BME280;43284;47.042;15.498;2023-04-26T02:47:32;96824.03;;;3.04;89.44
57442;BME280;43284;47.042;15.498;2023-04-26T02:49:57;96823.19;;;3.03;88.95
57442;BME280;43284;47.042;15.498;2023-04-26T02:52:23;96821.41;;;3.07;88.27
57442;BME280;43284;47.042;15.498;2023-04-26T02:54:49;96823.16;;;3.05;87.63
57442;BME280;43284;47.042;15.498;2023-04-26T02:57:14;96824.47;;;2.85;87.78
57442;BME280;43284;47.042;15.498;2023-04-26T02:59:40;96828.69;;;2.89;89.73
57442;BME280;43284;47.042;15.498;2023-04-26T03:02:05;96831.69;;;2.71;88.56
57442;BME280;43284;47.042;15.498;2023-04-26T03:04:34;96840.63;;;2.56;89.47
57442;BME280;43284;47.042;15.498;2023-04-26T03:07:02;96841.28;;;2.64;90.35
57442;BME280;43284;47.042;15.498;2023-04-26T03:09:28;96835.13;;;2.72;91.49
57442;BME280;43284;47.042;15.498;2023-04-26T03:11:53;96836.31;;;2.58;89.43
57442;BME280;43284;47.042;15.498;2023-04-26T03:14:19;96839.53;;;2.66;89.37
57442;BME280;43284;47.042;15.498;2023-04-26T03:16:44;96841.25;;;2.67;88.93
57442;BME280;43284;47.042;15.498;2023-04-26T03:19:10;96846.31;;;2.72;91.09
57442;BME280;43284;47.042;15.498;2023-04-26T03:21:36;96847.09;;;2.35;89.31
57442;BME280;43284;47.042;15.498;2023-04-26T03:24:01;96843.38;;;2.48;90.77
57442;BME280;43284;47.042;15.498;2023-04-26T03:26:27;96840.66;;;2.55;91.29
57442;BME280;43284;47.042;15.498;2023-04-26T03:28:52;96837.88;;;2.64;92.60
57442;BME280;43284;47.042;15.498;2023-04-26T03:31:18;96838.72;;;2.64;91.83
57442;BME280;43284;47.042;15.498;2023-04-26T03:33:45;96844.78;;;2.63;91.09
57442;BME280;43284;47.042;15.498;2023-04-26T03:36:11;96842.06;;;2.70;91.69
57442;BME280;43284;47.042;15.498;2023-04-26T03:38:37;96853.44;;;2.61;90.33
57442;BME280;43284;47.042;15.498;2023-04-26T03:41:02;96842.41;;;2.54;90.32
57442;BME280;43284;47.042;15.498;2023-04-26T03:43:28;96856.97;;;2.57;91.71
57442;BME280;43284;47.042;15.498;2023-04-26T03:45:53;96858.69;;;2.56;90.97
57442;BME280;43284;47.042;15.498;2023-04-26T03:48:19;96866.44;;;2.56;91.73
57442;BME280;43284;47.042;15.498;2023-04-26T03:50:45;96881.66;;;2.28;89.92
57442;BME280;43284;47.042;15.498;2023-04-26T03:53:10;96870.50;;;2.28;90.77
57442;BME280;43284;47.042;15.498;2023-04-26T03:55:36;96877.19;;;2.36;90.85
57442;BME280;43284;47.042;15.498;2023-04-26T03:58:02;96884.66;;;2.06;91.62
57442;BME280;43284;47.042;15.498;2023-04-26T04:00:33;96893.13;;;2.12;91.19
57442;BME280;43284;47.042;15.498;2023-04-26T04:02:59;96893.19;;;2.09;91.80
57442;BME280;43284;47.042;15.498;2023-04-26T04:05:24;96907.91;;;2.03;91.94
57442;BME280;43284;47.042;15.498;2023-04-26T04:07:50;96901.88;;;2.04;92.76
57442;BME280;43284;47.042;15.498;2023-04-26T04:10:16;96907.69;;;2.14;94.01
57442;BME280;43284;47.042;15.498;2023-04-26T04:12:42;96911.88;;;2.20;93.60
57442;BME280;43284;47.042;15.498;2023-04-26T04:15:08;96914.19;;;2.34;93.53
57442;BME280;43284;47.042;15.498;2023-04-26T04:17:34;96918.31;;;2.42;94.33
57442;BME280;43284;47.042;15.498;2023-04-26T04:20:01;96907.94;;;2.45;93.42
57442;BME280;43284;47.042;15.498;2023-04-26T04:22:29;96913.94;;;2.46;93.78
57442;BME280;43284;47.042;15.498;2023-04-26T04:24:54;96908.69;;;2.51;94.73
57442;BME280;43284;47.042;15.498;2023-04-26T04:27:20;96913.94;;;2.46;94.10
57442;BME280;43284;47.042;15.498;2023-04-26T04:29:47;96917.22;;;2.54;94.74
57442;BME280;43284;47.042;15.498;2023-04-26T04:32:18;96918.72;;;2.64;95.30
57442;BME280;43284;47.042;15.498;2023-04-26T04:34:44;96925.38;;;2.76;95.83
57442;BME280;43284;47.042;15.498;2023-04-26T04:37:10;96927.75;;;2.84;95.26
57442;BME280;43284;47.042;15.498;2023-04-26T04:39:36;96932.66;;;2.98;95.87
57442;BME280;43284;47.042;15.498;2023-04-26T04:42:02;96940.06;;;3.12;95.61
57442;BME280;43284;47.042;15.498;2023-04-26T04:44:28;96939.81;;;3.22;95.37
57442;BME280;43284;47.042;15.498;2023-04-26T04:46:53;96938.91;;;3.25;92.30
57442;BME280;43284;47.042;15.498;2023-04-26T04:49:19;96935.16;;;3.37;92.11
57442;BME280;43284;47.042;15.498;2023-04-26T04:51:45;96939.38;;;3.41;91.93
57442;BME280;43284;47.042;15.498;2023-04-26T04:54:16;96933.94;;;3.53;92.29
57442;BME280;43284;47.042;15.498;2023-04-26T04:56:42;96941.44;;;3.64;91.89
57442;BME280;43284;47.042;15.498;2023-04-26T04:59:08;96944.72;;;3.70;91.87
57442;BME280;43284;47.042;15.498;2023-04-26T05:01:34;96935.97;;;3.76;91.92
57442;BME280;43284;47.042;15.498;2023-04-26T05:04:01;96940.91;;;3.85;91.63
57442;BME280;43284;47.042;15.498;2023-04-26T05:06:27;96942.31;;;3.97;90.89
57442;BME280;43284;47.042;15.498;2023-04-26T05:08:54;96942.88;;;4.08;90.30
57442;BME280;43284;47.042;15.498;2023-04-26T05:11:20;96954.59;;;4.22;89.64
57442;BME280;43284;47.042;15.498;2023-04-26T05:13:47;96946.47;;;4.36;90.02
57442;BME280;43284;47.042;15.498;2023-04-26T05:16:12;96959.00;;;4.51;89.67
57442;BME280;43284;47.042;15.498;2023-04-26T05:18:38;96965.47;;;4.66;89.78
57442;BME280;43284;47.042;15.498;2023-04-26T05:21:04;96963.38;;;4.79;89.39
57442;BME280;43284;47.042;15.498;2023-04-26T05:23:29;96962.19;;;4.90;88.53
57442;BME280;43284;47.042;15.498;2023-04-26T05:25:55;96959.31;;;5.00;87.94
57442;BME280;43284;47.042;15.498;2023-04-26T05:28:21;96971.19;;;5.07;87.41
57442;BME280;43284;47.042;15.498;2023-04-26T05:30:47;96970.16;;;5.12;86.20
57442;BME280;43284;47.042;15.498;2023-04-26T05:33:12;96971.59;;;5.23;86.14
57442;BME280;43284;47.042;15.498;2023-04-26T05:35:38;96963.47;;;5.33;85.85
57442;BME280;43284;47.042;15.498;2023-04-26T05:38:03;96959.69;;;5.44;86.21
57442;BME280;43284;47.042;15.498;2023-04-26T05:40:29;96968.69;;;5.60;85.27
57442;BME280;43284;47.042;15.498;2023-04-26T05:42:55;96965.66;;;5.74;82.99
57442;BME280;43284;47.042;15.498;2023-04-26T05:45:21;96968.78;;;5.84;81.81
57442;BME280;43284;47.042;15.498;2023-04-26T05:47:47;96966.16;;;6.12;77.70
57442;BME280;43284;47.042;15.498;2023-04-26T05:50:12;96973.69;;;6.19;78.22
57442;BME280;43284;47.042;15.498;2023-04-26T05:52:38;96977.72;;;6.28;77.55
57442;BME280;43284;47.042;15.498;2023-04-26T05:55:03;96984.06;;;6.45;77.92
57442;BME280;43284;47.042;15.498;2023-04-26T05:57:30;96986.34;;;6.54;77.15
57442;BME280;43284;47.042;15.498;2023-04-26T05:59:55;96997.25;;;6.64;77.38
57442;BME280;43284;47.042;15.498;2023-04-26T06:02:21;96990.72;;;6.77;76.10
57442;BME280;43284;47.042;15.498;2023-04-26T06:04:47;96989.69;;;6.81;75.40
57442;BME280;43284;47.042;15.498;2023-04-26T06:07:12;96992.91;;;6.88;75.04
57442;BME280;43284;47.042;15.498;2023-04-26T06:09:38;96997.72;;;6.98;75.24
57442;BME280;43284;47.042;15.498;2023-04-26T06:12:03;96993.09;;;7.07;74.47
57442;BME280;43284;47.042;15.498;2023-04-26T06:14:29;96993.63;;;7.15;74.62
57442;BME280;43284;47.042;15.498;2023-04-26T06:16:55;96982.03;;;7.23;73.65
57442;BME280;43284;47.042;15.498;2023-04-26T06:19:21;96981.03;;;7.28;72.25
57442;BME280;43284;47.042;15.498;2023-04-26T06:21:46;96986.13;;;7.31;71.47
57442;BME280;43284;47.042;15.498;2023-04-26T06:24:13;96984.19;;;7.36;71.39
57442;BME280;43284;47.042;15.498;2023-04-26T06:26:39;96990.16;;;7.38;71.29
57442;BME280;43284;47.042;15.498;2023-04-26T06:29:05;96979.78;;;7.38;71.90
57442;BME280;43284;47.042;15.498;2023-04-26T06:31:30;96982.41;;;7.36;71.84
57442;BME280;43284;47.042;15.498;2023-04-26T06:33:56;96999.00;;;7.34;71.84
57442;BME280;43284;47.042;15.498;2023-04-26T06:36:22;96999.66;;;7.39;71.63
57442;BME280;43284;47.042;15.498;2023-04-26T06:38:47;96996.44;;;7.32;70.80
57442;BME280;43284;47.042;15.498;2023-04-26T06:41:13;96988.50;;;7.37;70.66
57442;BME280;43284;47.042;15.498;2023-04-26T06:43:38;96991.81;;;7.40;71.48
57442;BME280;43284;47.042;15.498;2023-04-26T06:46:04;96991.56;;;7.47;72.00
57442;BME280;43284;47.042;15.498;2023-04-26T06:48:29;96997.13;;;7.59;72.22
57442;BME280;43284;47.042;15.498;2023-04-26T06:50:55;96997.94;;;7.61;70.70
57442;BME280;43284;47.042;15.498;2023-04-26T06:53:20;96995.88;;;7.70;71.24
57442;BME280;43284;47.042;15.498;2023-04-26T06:55:46;96999.19;;;7.73;69.60
57442;BME280;43284;47.042;15.498;2023-04-26T06:58:11;96991.16;;;7.79;68.64
57442;BME280;43284;47.042;15.498;2023-04-26T07:00:37;97001.97;;;7.91;68.73
57442;BME280;43284;47.042;15.498;2023-04-26T07:03:02;96994.81;;;7.96;68.81
57442;BME280;43284;47.042;15.498;2023-04-26T07:05:28;96994.75;;;7.97;67.39
57442;BME280;43284;47.042;15.498;2023-04-26T07:07:53;96995.28;;;8.05;68.45
57442;BME280;43284;47.042;15.498;2023-04-26T07:10:19;96988.06;;;8.12;68.79
57442;BME280;43284;47.042;15.498;2023-04-26T07:12:45;96996.53;;;8.17;67.97
57442;BME280;43284;47.042;15.498;2023-04-26T07:15:11;96998.56;;;8.31;69.12
57442;BME280;43284;47.042;15.498;2023-04-26T07:17:36;97000.00;;;8.38;67.71
57442;BME280;43284;47.042;15.498;2023-04-26T07:20:02;97003.81;;;8.52;68.52
57442;BME280;43284;47.042;15.498;2023-04-26T07:22:28;97001.25;;;8.71;66.42
57442;BME280;43284;47.042;15.498;2023-04-26T07:24:53;96996.88;;;8.71;62.60
57442;BME280;43284;47.042;15.498;2023-04-26T07:27:19;96999.03;;;8.82;63.67
57442;BME280;43284;47.042;15.498;2023-04-26T07:29:45;96997.63;;;8.94;65.18
57442;BME280;43284;47.042;15.498;2023-04-26T07:32:11;97003.19;;;9.05;65.98
57442;BME280;43284;47.042;15.498;2023-04-26T07:34:37;96995.88;;;9.13;65.73
57442;BME280;43284;47.042;15.498;2023-04-26T07:37:02;96997.72;;;9.30;65.73
57442;BME280;43284;47.042;15.498;2023-04-26T07:39:28;96997.94;;;9.25;63.87
57442;BME280;43284;47.042;15.498;2023-04-26T07:41:54;97005.34;;;9.35;63.62
57442;BME280;43284;47.042;15.498;2023-04-26T07:44:19;96999.13;;;9.37;61.39
57442;BME280;43284;47.042;15.498;2023-04-26T07:46:45;97007.38;;;9.28;61.57
57442;BME280;43284;47.042;15.498;2023-04-26T07:49:10;97011.53;;;9.32;61.27
57442;BME280;43284;47.042;15.498;2023-04-26T07:51:36;97005.28;;;9.36;61.54
57442;BME280;43284;47.042;15.498;2023-04-26T07:54:01;97003.13;;;9.44;60.85
57442;BME280;43284;47.042;15.498;2023-04-26T07:56:27;97013.13;;;9.73;61.27
57442;BME280;43284;47.042;15.498;2023-04-26T07:58:52;97012.75;;;9.80;59.66
57442;BME280;43284;47.042;15.498;2023-04-26T08:01:18;97002.38;;;9.79;60.37
57442;BME280;43284;47.042;15.498;2023-04-26T08:03:43;97015.50;;;9.77;58.80
57442;BME280;43284;47.042;15.498;2023-04-26T08:06:09;97012.81;;;9.79;59.61
57442;BME280;43284;47.042;15.498;2023-04-26T08:08:34;96999.44;;;9.86;60.44
57442;BME280;43284;47.042;15.498;2023-04-26T08:11:07;97010.94;;;9.82;59.17
57442;BME280;43284;47.042;15.498;2023-04-26T08:13:34;97013.38;;;9.85;59.40
57442;BME280;43284;47.042;15.498;2023-04-26T08:15:59;97017.94;;;9.82;59.75
57442;BME280;43284;47.042;15.498;2023-04-26T08:18:25;97009.91;;;10.04;60.15
57442;BME280;43284;47.042;15.498;2023-04-26T08:20:50;97009.81;;;10.23;61.06
57442;BME280;43284;47.042;15.498;2023-04-26T08:23:19;97009.91;;;10.21;60.85
57442;BME280;43284;47.042;15.498;2023-04-26T08:25:44;97002.09;;;10.39;60.56
57442;BME280;43284;47.042;15.498;2023-04-26T08:28:10;97001.16;;;10.40;58.81
57442;BME280;43284;47.042;15.498;2023-04-26T08:30:39;97016.25;;;10.52;58.62
57442;BME280;43284;47.042;15.498;2023-04-26T08:33:04;97006.75;;;10.67;59.42
57442;BME280;43284;47.042;15.498;2023-04-26T08:35:31;97009.03;;;10.90;59.28
57442;BME280;43284;47.042;15.498;2023-04-26T08:37:56;97008.06;;;11.09;60.31
57442;BME280;43284;47.042;15.498;2023-04-26T08:40:23;97010.59;;;11.10;57.39
57442;BME280;43284;47.042;15.498;2023-04-26T08:42:49;97015.66;;;11.13;55.06
57442;BME280;43284;47.042;15.498;2023-04-26T08:45:17;97018.06;;;11.34;56.10
57442;BME280;43284;47.042;15.498;2023-04-26T08:47:44;97008.78;;;11.28;52.26
57442;BME280;43284;47.042;15.498;2023-04-26T08:50:13;97003.88;;;11.38;52.62
57442;BME280;43284;47.042;15.498;2023-04-26T08:52:39;97005.66;;;11.38;50.12
57442;BME280;43284;47.042;15.498;2023-04-26T08:55:09;97011.91;;;11.35;50.53
57442;BME280;43284;47.042;15.498;2023-04-26T08:57:37;97008.63;;;10.98;50.86
57442;BME280;43284;47.042;15.498;2023-04-26T09:00:05;97014.28;;;11.40;49.93
57442;BME280;43284;47.042;15.498;2023-04-26T09:02:34;97021.50;;;11.19;49.86
57442;BME280;43284;47.042;15.498;2023-04-26T09:05:00;97025.31;;;11.13;50.13
57442;BME280;43284;47.042;15.498;2023-04-26T09:07:30;97025.56;;;10.91;52.33
57442;BME280;43284;47.042;15.498;2023-04-26T09:09:57;97018.81;;;10.87;50.93
57442;BME280;43284;47.042;15.498;2023-04-26T09:12:23;97022.19;;;10.89;54.20
57442;BME280;43284;47.042;15.498;2023-04-26T09:14:49;97020.31;;;10.91;52.48
57442;BME280;43284;47.042;15.498;2023-04-26T09:19:55;97021.56;;;10.84;50.28
57442;BME280;43284;47.042;15.498;2023-04-26T09:22:32;97016.34;;;10.84;51.97
57442;BME280;43284;47.042;15.498;2023-04-26T09:24:59;97019.47;;;10.90;53.15
57442;BME280;43284;47.042;15.498;2023-04-26T09:27:38;97019.69;;;10.70;53.97
57442;BME280;43284;47.042;15.498;2023-04-26T09:30:10;97028.13;;;10.75;52.43
57442;BME280;43284;47.042;15.498;2023-04-26T09:33:00;97015.16;;;10.74;51.96
57442;BME280;43284;47.042;15.498;2023-04-26T09:38:02;97014.59;;;10.67;50.01
57442;BME280;43284;47.042;15.498;2023-04-26T09:40:32;97013.56;;;11.20;51.63
57442;BME280;43284;47.042;15.498;2023-04-26T09:43:12;97000.25;;;11.25;49.44
57442;BME280;43284;47.042;15.498;2023-04-26T09:45:46;97002.16;;;11.21;51.18
57442;BME280;43284;47.042;15.498;2023-04-26T09:50:51;96999.28;;;11.26;49.76
57442;BME280;43284;47.042;15.498;2023-04-26T09:53:48;96993.91;;;11.29;50.46
57442;BME280;43284;47.042;15.498;2023-04-26T09:56:16;96995.78;;;11.43;49.87
57442;BME280;43284;47.042;15.498;2023-04-26T10:01:09;96999.41;;;11.24;53.01
57442;BME280;43284;47.042;15.498;2023-04-26T10:03:36;96997.81;;;11.38;52.09
57442;BME280;43284;47.042;15.498;2023-04-26T10:06:05;96989.13;;;11.37;54.62
57442;BME280;43284;47.042;15.498;2023-04-26T10:08:31;96986.31;;;11.40;53.09
57442;BME280;43284;47.042;15.498;2023-04-26T10:10:58;96987.50;;;11.50;55.24
57442;BME280;43284;47.042;15.498;2023-04-26T10:13:24;96985.31;;;11.90;56.09
57442;BME280;43284;47.042;15.498;2023-04-26T10:15:51;96991.81;;;12.29;55.81
57442;BME280;43284;47.042;15.498;2023-04-26T10:18:17;96980.22;;;12.33;52.55
57442;BME280;43284;47.042;15.498;2023-04-26T10:20:45;96973.81;;;12.53;54.14
57442;BME280;43284;47.042;15.498;2023-04-26T10:23:18;96978.31;;;12.80;50.24
57442;BME280;43284;47.042;15.498;2023-04-26T10:25:46;96964.00;;;12.86;49.75
57442;BME280;43284;47.042;15.498;2023-04-26T10:28:11;96970.56;;;12.93;48.95
57442;BME280;43284;47.042;15.498;2023-04-26T10:30:56;96968.47;;;12.98;50.14
57442;BME280;43284;47.042;15.498;2023-04-26T10:33:23;96966.41;;;12.60;47.50
57442;BME280;43284;47.042;15.498;2023-04-26T10:36:10;96970.50;;;12.50;46.31
57442;BME280;43284;47.042;15.498;2023-04-26T10:43:58;96961.44;;;13.13;49.48
57442;BME280;43284;47.042;15.498;2023-04-26T10:46:35;96970.16;;;13.13;47.37
57442;BME280;43284;47.042;15.498;2023-04-26T10:49:15;96956.13;;;13.14;41.73
57442;BME280;43284;47.042;15.498;2023-04-26T10:52:07;96960.31;;;13.03;45.96
57442;BME280;43284;47.042;15.498;2023-04-26T10:54:48;96974.09;;;12.77;42.18
57442;BME280;43284;47.042;15.498;2023-04-26T10:57:15;96963.03;;;12.72;39.79
57442;BME280;43284;47.042;15.498;2023-04-26T11:00:14;96962.84;;;12.90;40.62
57442;BME280;43284;47.042;15.498;2023-04-26T11:02:46;96958.66;;;12.73;38.44
57442;BME280;43284;47.042;15.498;2023-04-26T11:05:32;96961.25;;;12.44;39.51
57442;BME280;43284;47.042;15.498;2023-04-26T11:08:14;96963.75;;;12.31;40.83
57442;BME280;43284;47.042;15.498;2023-04-26T11:10:40;96950.91;;;12.41;41.60
57442;BME280;43284;47.042;15.498;2023-04-26T11:13:06;96946.19;;;12.76;44.33
57442;BME280;43284;47.042;15.498;2023-04-26T11:15:32;96942.25;;;12.84;38.91
57442;BME280;43284;47.042;15.498;2023-04-26T11:18:01;96928.50;;;12.94;39.20
57442;BME280;43284;47.042;15.498;2023-04-26T11:20:30;96933.34;;;13.01;42.13
57442;BME280;43284;47.042;15.498;2023-04-26T11:22:56;96921.88;;;13.16;39.95
57442;BME280;43284;47.042;15.498;2023-04-26T11:25:24;96928.16;;;13.13;40.09
57442;BME280;43284;47.042;15.498;2023-04-26T11:27:50;96924.63;;;13.00;38.58
57442;BME280;43284;47.042;15.498;2023-04-26T11:30:17;96925.88;;;12.94;40.11
57442;BME280;43284;47.042;15.498;2023-04-26T11:32:46;96926.78;;;12.93;39.12
57442;BME280;43284;47.042;15.498;2023-04-26T11:35:14;96925.84;;;13.09;42.07
57442;BME280;43284;47.042;15.498;2023-04-26T11:37:40;96936.16;;;12.97;40.04
57442;BME280;43284;47.042;15.498;2023-04-26T11:40:09;96926.59;;;13.11;38.85
57442;BME280;43284;47.042;15.498;2023-04-26T11:42:35;96926.69;;;12.95;39.16
57442;BME280;43284;47.042;15.498;2023-04-26T11:45:02;96925.72;;;13.25;39.77
57442;BME280;43284;47.042;15.498;2023-04-26T11:47:32;96926.56;;;13.39;39.30
57442;BME280;43284;47.042;15.498;2023-04-26T11:49:58;96920.81;;;13.47;37.29
57442;BME280;43284;47.042;15.498;2023-04-26T11:52:23;96923.50;;;13.60;36.77
57442;BME280;43284;47.042;15.498;2023-04-26T11:54:49;96921.88;;;13.72;36.15
57442;BME280;43284;47.042;15.498;2023-04-26T11:57:29;96922.31;;;13.78;36.76
57442;BME280;43284;47.042;15.498;2023-04-26T12:00:09;96913.25;;;13.70;35.58
57442;BME280;43284;47.042;15.498;2023-04-26T12:02:48;96915.50;;;13.89;35.08
57442;BME280;43284;47.042;15.498;2023-04-26T12:05:27;96917.09;;;13.91;35.28
57442;BME280;43284;47.042;15.498;2023-04-26T12:07:57;96916.59;;;14.12;36.86
57442;BME280;43284;47.042;15.498;2023-04-26T12:12:50;96919.09;;;14.00;35.52
57442;BME280;43284;47.042;15.498;2023-04-26T12:15:18;96908.22;;;14.32;40.12
57442;BME280;43284;47.042;15.498;2023-04-26T12:17:54;96905.63;;;14.58;37.35
57442;BME280;43284;47.042;15.498;2023-04-26T12:20:26;96902.94;;;14.45;32.86
57442;BME280;43284;47.042;15.498;2023-04-26T12:25:28;96898.47;;;13.94;32.94
57442;BME280;43284;47.042;15.498;2023-04-26T12:27:54;96896.53;;;14.36;34.78
57442;BME280;43284;47.042;15.498;2023-04-26T12:30:20;96895.06;;;14.19;33.30
57442;BME280;43284;47.042;15.498;2023-04-26T12:32:46;96901.69;;;14.38;35.37
57442;BME280;43284;47.042;15.498;2023-04-26T12:35:12;96902.94;;;14.45;35.42
57442;BME280;43284;47.042;15.498;2023-04-26T12:37:37;96895.72;;;14.49;33.43
57442;BME280;43284;47.042;15.498;2023-04-26T12:40:03;96897.69;;;14.45;33.67
57442;BME280;43284;47.042;15.498;2023-04-26T12:42:31;96893.47;;;14.30;36.48
57442;BME280;43284;47.042;15.498;2023-04-26T12:44:56;96897.28;;;14.38;34.27
57442;BME280;43284;47.042;15.498;2023-04-26T12:47:22;96891.50;;;14.33;32.51
57442;BME280;43284;47.042;15.498;2023-04-26T12:49:47;96893.19;;;14.34;32.23
57442;BME280;43284;47.042;15.498;2023-04-26T12:52:12;96907.22;;;14.08;34.34
57442;BME280;43284;47.042;15.498;2023-04-26T12:54:38;96903.00;;;13.92;35.97
57442;BME280;43284;47.042;15.498;2023-04-26T12:57:04;96899.69;;;14.16;33.42
57442;BME280;43284;47.042;15.498;2023-04-26T12:59:29;96894.53;;;14.01;33.41
57442;BME280;43284;47.042;15.498;2023-04-26T13:01:55;96893.91;;;14.11;32.41
57442;BME280;43284;47.042;15.498;2023-04-26T13:04:20;96899.84;;;13.87;33.43
57442;BME280;43284;47.042;15.498;2023-04-26T13:06:46;96891.34;;;13.96;32.89
57442;BME280;43284;47.042;15.498;2023-04-26T13:09:11;96892.75;;;13.75;34.03
57442;BME280;43284;47.042;15.498;2023-04-26T13:11:38;96891.69;;;14.17;34.94
57442;BME280;43284;47.042;15.498;2023-04-26T13:14:04;96892.66;;;14.29;32.62
57442;BME280;43284;47.042;15.498;2023-04-26T13:16:32;96892.84;;;14.52;32.73
57442;BME280;43284;47.042;15.498;2023-04-26T13:18:58;96888.03;;;14.46;31.84